Time;durP1;ratioP1;P1;durP2;ratioP2;P2;SDS_P1;SDS_P2;PMS_P1;PMS_P2;Temp;Humidity;BMP_temperature;BMP_pressure;BME280_temperature;BME280_humidity;BME280_pressure;Samples;Min_cycle;Max_cycle;Signal;HPM_P1;HPM_P2
2022/10/28 00:00:50;;;;;;;9.95;5.03;;;;;;;14.77;85.37;101068.00;5057427;28;20420;-77
2022/10/28 00:03:17;;;;;;;10.88;5.43;;;;;;;14.71;85.49;101064.41;5040152;28;20404;-77
2022/10/28 00:05:42;;;;;;;6.88;5.10;;;;;;;14.70;85.73;101067.38;5061532;28;20418;-77
2022/10/28 00:08:08;;;;;;;15.57;5.27;;;;;;;14.70;85.70;101079.13;5053437;28;20409;-77
2022/10/28 00:10:33;;;;;;;9.65;5.50;;;;;;;14.69;85.56;101074.72;5053680;28;20884;-77
2022/10/28 00:12:58;;;;;;;12.10;5.40;;;;;;;14.74;85.31;101065.78;5058202;28;20409;-77
2022/10/28 00:15:24;;;;;;;8.87;5.03;;;;;;;14.69;85.66;101071.19;5066054;28;20404;-77
2022/10/28 00:17:49;;;;;;;9.33;4.57;;;;;;;14.68;85.52;101064.09;5055851;28;20878;-77
2022/10/28 00:20:14;;;;;;;12.27;5.70;;;;;;;14.67;85.57;101065.16;5053776;28;20480;-77
2022/10/28 00:22:40;;;;;;;12.30;4.77;;;;;;;14.65;85.57;101076.34;5038534;28;20389;-77
2022/10/28 00:25:06;;;;;;;9.68;3.70;;;;;;;14.64;85.22;101068.41;5058238;28;20498;-77
2022/10/28 00:27:32;;;;;;;9.73;4.05;;;;;;;14.60;85.48;101070.81;5055964;28;20406;-77
2022/10/28 00:29:57;;;;;;;8.60;3.47;;;;;;;14.60;85.49;101080.91;5051505;28;20476;-77
2022/10/28 00:32:22;;;;;;;7.68;3.35;;;;;;;14.58;85.50;101080.34;5050281;28;20504;-77
2022/10/28 00:34:48;;;;;;;8.57;3.03;;;;;;;14.53;85.48;101072.94;5056604;28;20925;-77
2022/10/28 00:37:13;;;;;;;11.77;3.50;;;;;;;14.54;85.54;101075.41;5053607;28;20491;-77
2022/10/28 00:39:38;;;;;;;9.33;3.50;;;;;;;14.54;85.32;101075.41;5052834;28;20400;-77
2022/10/28 00:42:06;;;;;;;7.03;3.20;;;;;;;14.56;85.03;101066.97;5051414;28;20410;-77
2022/10/28 00:44:55;;;;;;;5.93;3.40;;;;;;;14.57;85.36;101071.34;5054803;28;20463;-77
2022/10/28 00:47:59;;;;;;;9.67;3.37;;;;;;;14.59;85.26;101076.56;5052150;28;20406;-77
2022/10/28 00:50:47;;;;;;;10.00;3.55;;;;;;;14.59;84.90;101074.63;5041393;28;20883;-77
2022/10/28 00:53:20;;;;;;;6.88;2.63;;;;;;;14.58;85.03;101064.81;5036023;28;20409;-77
2022/10/28 00:55:47;;;;;;;6.78;3.13;;;;;;;14.55;85.23;101063.41;5056399;28;20917;-77
2022/10/28 00:58:19;;;;;;;11.98;2.95;;;;;;;14.54;85.39;101056.31;5052878;28;20405;-77
2022/10/28 01:00:44;;;;;;;6.82;2.85;;;;;;;14.57;85.17;101057.69;5059655;28;20746;-77
2022/10/28 01:03:10;;;;;;;5.03;2.90;;;;;;;14.56;85.23;101056.03;5050439;28;20393;-77
2022/10/28 01:05:39;;;;;;;6.47;2.60;;;;;;;14.53;85.32;101045.66;5050595;28;20416;-77
2022/10/28 01:08:05;;;;;;;8.18;3.08;;;;;;;14.54;85.25;101053.59;5051165;28;20424;-77
2022/10/28 01:10:45;;;;;;;7.93;3.07;;;;;;;14.54;85.11;101048.13;5060667;28;20738;-77
2022/10/28 01:13:35;;;;;;;6.95;3.03;;;;;;;14.54;85.30;101053.59;5053263;28;20463;-77
2022/10/28 01:16:22;;;;;;;7.43;3.08;;;;;;;14.56;84.91;101056.03;5054631;28;20451;-77
2022/10/28 01:18:57;;;;;;;7.53;2.95;;;;;;;14.55;85.05;101054.41;5056740;28;20402;-77
2022/10/28 01:21:51;;;;;;;35.92;4.18;;;;;;;14.57;84.92;101062.31;5033601;28;20389;-77
2022/10/28 01:24:35;;;;;;;7.43;2.78;;;;;;;14.59;85.19;101060.19;5054836;28;20378;-77
2022/10/28 01:27:34;;;;;;;9.23;3.08;;;;;;;14.60;85.20;101062.66;5060501;28;20400;-76
2022/10/28 01:30:15;;;;;;;7.38;2.65;;;;;;;14.62;84.99;101059.66;5034675;28;20494;-77
2022/10/28 01:32:52;;;;;;;22.90;3.42;;;;;;;14.64;84.85;101057.50;5052960;28;20732;-77
2022/10/28 01:35:36;;;;;;;9.30;3.58;;;;;;;14.67;85.17;101056.97;5043212;28;20742;-77
2022/10/28 01:38:15;;;;;;;5.28;2.85;;;;;;;14.68;85.00;101064.09;5038375;28;20419;-77
2022/10/28 01:40:53;;;;;;;10.77;3.55;;;;;;;14.68;85.39;101072.28;5054276;28;20383;-76
2022/10/28 01:43:35;;;;;;;15.37;4.40;;;;;;;14.69;85.26;101063.00;5051950;28;20397;-77
2022/10/28 01:46:07;;;;;;;9.77;4.40;;;;;;;14.70;85.25;101068.22;5048712;28;20436;-77
2022/10/28 01:48:40;;;;;;;7.18;3.75;;;;;;;14.73;85.00;101061.41;5048395;28;20403;-77
2022/10/28 01:51:31;;;;;;;5.38;4.05;;;;;;;14.76;85.31;101049.97;5054858;28;20425;-77
2022/10/28 01:54:01;;;;;;;7.72;3.30;;;;;;;14.77;85.03;101048.91;5049735;28;20405;-77
2022/10/28 01:56:32;;;;;;;10.55;3.42;;;;;;;14.78;84.83;101053.28;5043082;28;20752;-77
2022/10/28 01:59:00;;;;;;;6.50;3.20;;;;;;;14.77;85.07;101047.00;5051485;28;20923;-77
2022/10/28 02:01:28;;;;;;;8.48;2.97;;;;;;;14.79;84.89;101042.09;5051365;28;20420;-77
2022/10/28 02:03:55;;;;;;;13.60;3.97;;;;;;;14.77;85.07;101040.72;5054595;28;20421;-77
2022/10/28 02:06:24;;;;;;;11.57;3.10;;;;;;;14.74;85.07;101033.06;5048029;28;20415;-77
2022/10/28 02:09:06;;;;;;;8.00;2.78;;;;;;;14.71;84.91;101042.59;5047361;28;20450;-77
2022/10/28 02:11:34;;;;;;;10.18;2.97;;;;;;;14.61;85.46;101045.22;5056016;28;20494;-77
2022/10/28 02:14:15;;;;;;;9.00;2.78;;;;;;;14.66;85.21;101038.97;5055744;28;20388;-77
2022/10/28 02:16:47;;;;;;;7.15;2.75;;;;;;;14.67;84.93;101046.91;5033376;28;20402;-76
2022/10/28 02:19:15;;;;;;;4.90;2.38;;;;;;;14.68;84.76;101039.53;5047616;28;20405;-77
2022/10/28 02:21:43;;;;;;;10.20;2.75;;;;;;;14.70;84.77;101040.94;5039135;28;20405;-77
2022/10/28 02:24:21;;;;;;;9.25;2.60;;;;;;;14.69;85.06;101041.16;5050404;28;20401;-77
2022/10/28 02:26:54;;;;;;;7.57;2.65;;;;;;;14.69;84.95;101036.53;5051643;28;20934;-77
2022/10/28 02:29:38;;;;;;;6.68;2.85;;;;;;;14.72;84.83;101046.94;5049148;28;20500;-77
2022/10/28 02:32:08;;;;;;;9.57;3.23;;;;;;;14.72;84.86;101041.47;5034307;28;20402;-77
2022/10/28 02:34:43;;;;;;;7.97;2.63;;;;;;;14.71;85.12;101028.94;5055444;28;20401;-77
2022/10/28 02:37:14;;;;;;;9.85;2.67;;;;;;;14.73;85.15;101034.13;5052223;28;20926;-77
2022/10/28 02:39:44;;;;;;;17.73;3.00;;;;;;;14.75;85.11;101024.59;5051482;28;20411;-77
2022/10/28 02:42:20;;;;;;;12.43;3.35;;;;;;;14.75;84.93;101015.59;5050613;28;20452;-77
2022/10/28 02:44:50;;;;;;;10.40;3.00;;;;;;;14.74;85.13;101011.22;5034154;28;20414;-77
2022/10/28 02:47:19;;;;;;;7.67;2.83;;;;;;;14.72;84.82;101008.75;5054636;28;20393;-77
2022/10/28 02:49:51;;;;;;;14.85;2.85;;;;;;;14.72;84.80;101011.47;5051647;28;20882;-77
2022/10/28 02:52:20;;;;;;;7.85;2.70;;;;;;;14.73;84.72;101004.09;5054268;28;20391;-77
2022/10/28 02:54:58;;;;;;;10.13;3.75;;;;;;;14.69;85.02;101006.53;5056058;28;20417;-77
2022/10/28 02:57:31;;;;;;;11.40;3.40;;;;;;;14.66;85.26;101001.59;5045242;28;20398;-77
2022/10/28 03:00:08;;;;;;;8.90;2.90;;;;;;;14.63;85.13;100991.19;5047614;28;20419;-77
2022/10/28 03:02:33;;;;;;;9.32;2.70;;;;;;;14.61;85.01;100989.81;5033378;28;20405;-77
2022/10/28 03:04:58;;;;;;;9.47;3.17;;;;;;;14.59;85.15;100992.00;5057807;28;20425;-77
2022/10/28 03:07:24;;;;;;;9.30;2.67;;;;;;;14.56;85.18;100998.78;5056292;28;20398;-77
2022/10/28 03:09:50;;;;;;;7.60;2.87;;;;;;;14.53;85.05;100999.28;5049855;28;20413;-77
2022/10/28 03:12:15;;;;;;;8.43;2.97;;;;;;;14.51;85.15;100993.28;5047484;28;20402;-77
2022/10/28 03:14:41;;;;;;;6.07;2.80;;;;;;;14.50;85.17;100994.34;5046255;28;20759;-77
2022/10/28 03:17:06;;;;;;;5.90;2.90;;;;;;;14.50;85.46;100995.19;5059324;28;20395;-77
2022/10/28 03:19:32;;;;;;;5.77;2.67;;;;;;;14.51;85.72;100996.00;5045945;28;20882;-77
2022/10/28 03:21:57;;;;;;;7.45;2.72;;;;;;;14.52;85.44;101003.13;5050778;28;20455;-76
2022/10/28 03:24:23;;;;;;;7.30;3.13;;;;;;;14.54;85.37;101000.94;5048758;28;20421;-77
2022/10/28 03:26:48;;;;;;;6.22;2.60;;;;;;;14.53;85.08;100994.66;5055011;28;20388;-77
2022/10/28 03:29:13;;;;;;;12.03;2.90;;;;;;;14.58;85.20;101003.97;5040623;28;20416;-77
2022/10/28 03:31:38;;;;;;;8.90;2.67;;;;;;;14.58;85.22;100993.91;5055666;28;20389;-77
2022/10/28 03:34:04;;;;;;;8.60;3.35;;;;;;;14.62;84.98;100991.47;5055236;28;20455;-77
2022/10/28 03:36:29;;;;;;;17.27;3.90;;;;;;;14.63;85.23;100993.94;5036111;28;20405;-77
2022/10/28 03:38:54;;;;;;;5.47;2.50;;;;;;;14.66;85.12;100995.31;5060925;28;20427;-77
2022/10/28 03:41:20;;;;;;;10.00;2.95;;;;;;;14.68;84.99;100995.91;5057065;28;20409;-77
2022/10/28 03:43:45;;;;;;;8.20;2.67;;;;;;;14.68;84.81;100987.72;5054715;28;20468;-77
2022/10/28 03:46:10;;;;;;;14.87;3.23;;;;;;;14.66;84.78;100989.84;5057946;28;20776;-77
2022/10/28 03:48:35;;;;;;;10.13;3.00;;;;;;;14.62;84.83;100981.38;5053586;28;20399;-77
2022/10/28 03:51:01;;;;;;;7.93;2.10;;;;;;;14.62;84.92;100969.66;5040421;28;20455;-77
2022/10/28 03:53:26;;;;;;;12.07;3.27;;;;;;;14.64;85.08;100970.22;5038878;28;20393;-77
2022/10/28 03:55:57;;;;;;;12.80;2.70;;;;;;;14.61;85.07;100971.56;5055313;28;20438;-77
2022/10/28 03:58:23;;;;;;;7.40;3.00;;;;;;;14.61;84.83;100957.09;5049378;28;20399;-77
2022/10/28 04:00:49;;;;;;;13.98;3.35;;;;;;;14.61;84.93;100962.53;5057722;28;20867;-77
2022/10/28 04:03:18;;;;;;;16.05;2.78;;;;;;;14.54;85.47;100946.41;5035828;28;20481;-77
2022/10/28 04:05:44;;;;;;;7.47;2.78;;;;;;;14.52;85.44;100941.19;5036087;28;20417;-77
2022/10/28 04:08:10;;;;;;;7.63;3.20;;;;;;;14.53;85.54;100928.38;5056777;28;20404;-77
2022/10/28 04:10:36;;;;;;;10.10;2.97;;;;;;;14.52;85.82;100921.28;5053441;28;20406;-77
2022/10/28 04:13:03;;;;;;;6.28;3.08;;;;;;;14.52;85.71;100940.38;5054615;28;20394;-77
2022/10/28 04:15:29;;;;;;;13.43;2.72;;;;;;;14.49;85.65;100936.25;5055188;28;20444;-77
2022/10/28 04:17:54;;;;;;;13.97;4.33;;;;;;;14.49;85.84;100947.16;5037199;28;20926;-77
2022/10/28 04:20:19;;;;;;;7.37;2.97;;;;;;;14.47;85.96;100953.97;5052296;28;20393;-77
2022/10/28 04:22:45;;;;;;;18.80;4.00;;;;;;;14.43;85.91;100948.19;5056875;28;20872;-77
2022/10/28 04:25:10;;;;;;;8.00;3.83;;;;;;;14.44;85.96;100954.47;5070603;28;20413;-77
2022/10/28 04:27:35;;;;;;;17.52;3.90;;;;;;;14.42;85.96;100967.56;5053455;28;20501;-77
2022/10/28 04:30:01;;;;;;;9.93;3.73;;;;;;;14.40;86.08;100947.88;5053536;28;20889;-77
2022/10/28 04:32:26;;;;;;;11.82;4.60;;;;;;;14.40;85.94;100935.09;5052992;28;21099;-78
2022/10/28 04:34:51;;;;;;;9.27;4.67;;;;;;;14.41;85.99;100950.38;5055813;28;20485;-77
2022/10/28 04:37:17;;;;;;;9.57;4.03;;;;;;;14.36;86.20;100944.03;5056369;28;20433;-77
2022/10/28 04:39:42;;;;;;;10.03;3.63;;;;;;;14.36;86.03;100947.59;5053861;28;20481;-77
2022/10/28 04:42:07;;;;;;;8.60;3.70;;;;;;;14.34;86.35;100947.03;5034428;28;20405;-77
2022/10/28 04:44:33;;;;;;;12.20;3.73;;;;;;;14.33;86.20;100950.81;5056821;28;20429;-78
2022/10/28 04:46:58;;;;;;;7.13;3.43;;;;;;;14.31;86.42;100947.50;5056638;28;20856;-78
2022/10/28 04:49:23;;;;;;;8.37;4.27;;;;;;;14.31;86.35;100961.16;5054981;28;20403;-79
2022/10/28 04:51:49;;;;;;;13.70;3.77;;;;;;;14.31;86.15;100960.31;5034194;28;20385;-79
2022/10/28 04:54:14;;;;;;;10.17;3.47;;;;;;;14.30;86.21;100970.41;5036848;28;20450;-79
2022/10/28 04:56:39;;;;;;;17.90;3.95;;;;;;;14.28;86.15;100958.09;5056390;28;20420;-77
2022/10/28 04:59:10;;;;;;;18.70;4.03;;;;;;;14.27;86.41;100967.34;5051210;28;20413;-77
2022/10/28 05:01:35;;;;;;;15.43;4.97;;;;;;;14.24;86.38;100963.25;5052829;28;20432;-78
2022/10/28 05:04:01;;;;;;;11.43;4.50;;;;;;;14.24;86.37;100962.41;5045323;28;20394;-82
2022/10/28 05:06:26;;;;;;;8.67;3.50;;;;;;;14.22;86.24;100976.31;5056903;28;20522;-78
2022/10/28 05:08:51;;;;;;;9.07;4.83;;;;;;;14.20;86.21;100975.75;5028063;28;20456;-77
2022/10/28 05:11:17;;;;;;;10.27;4.43;;;;;;;14.13;86.30;100964.22;5050984;28;20462;-77
2022/10/28 05:13:42;;;;;;;15.47;4.03;;;;;;;14.11;86.34;100963.66;5047728;28;20796;-78
2022/10/28 05:16:07;;;;;;;7.13;3.60;;;;;;;14.06;86.52;100982.69;5031473;28;20496;-79
2022/10/28 05:18:33;;;;;;;11.55;4.68;;;;;;;14.03;86.69;100978.53;5047975;28;20752;-78
2022/10/28 05:20:58;;;;;;;11.17;3.57;;;;;;;14.01;86.77;100975.25;5045246;28;20734;-77
2022/10/28 05:23:24;;;;;;;13.02;3.80;;;;;;;14.00;86.79;100956.44;5050003;28;20802;-76
2022/10/28 05:25:50;;;;;;;11.90;3.97;;;;;;;14.01;86.79;100952.63;5045049;28;20425;-76
2022/10/28 05:28:16;;;;;;;8.00;4.13;;;;;;;14.01;86.77;100950.75;5043779;28;20414;-76
2022/10/28 05:30:42;;;;;;;12.40;5.30;;;;;;;13.99;86.88;100962.97;5054502;28;20407;-76
2022/10/28 05:33:09;;;;;;;22.67;4.13;;;;;;;13.95;86.86;100964.56;5042997;28;20484;-78
2022/10/28 05:35:34;;;;;;;5.45;3.60;;;;;;;13.94;86.96;100954.72;5049077;28;20389;-77
2022/10/28 05:37:59;;;;;;;8.90;3.70;;;;;;;13.94;86.85;100962.91;5053658;28;20406;-76
2022/10/28 05:40:25;;;;;;;11.20;4.50;;;;;;;13.93;87.05;100966.69;5056914;28;20772;-78
2022/10/28 05:42:50;;;;;;;13.93;4.60;;;;;;;13.94;86.88;100971.06;5048416;28;20762;-79
2022/10/28 05:45:16;;;;;;;23.80;10.30;;;;;;;13.88;87.02;100956.56;5050232;28;20442;-75
2022/10/28 05:47:43;;;;;;;14.00;5.20;;;;;;;13.86;86.76;100957.91;5047414;28;20401;-77
2022/10/28 05:50:09;;;;;;;15.25;6.00;;;;;;;13.85;87.08;100953.53;5040569;28;20385;-76
2022/10/28 05:52:34;;;;;;;18.98;6.35;;;;;;;13.85;86.60;100948.09;5032701;28;20742;-77
2022/10/28 05:54:59;;;;;;;17.50;6.05;;;;;;;13.84;86.74;100941.81;5051160;28;20429;-76
2022/10/28 05:57:25;;;;;;;18.27;6.47;;;;;;;13.80;87.07;100942.56;5052459;28;20502;-77
2022/10/28 05:59:50;;;;;;;21.10;5.87;;;;;;;13.76;86.99;100946.91;5051654;28;20401;-76
2022/10/28 06:02:15;;;;;;;11.57;5.00;;;;;;;13.76;87.09;100955.06;5056117;28;20859;-77
2022/10/28 06:04:41;;;;;;;20.17;5.43;;;;;;;13.77;86.61;100956.69;5045099;28;20415;-76
2022/10/28 06:07:14;;;;;;;27.85;6.25;;;;;;;13.76;86.70;100958.63;5047062;28;20529;-76
2022/10/28 06:09:39;;;;;;;21.60;5.63;;;;;;;13.83;86.28;100953.78;5052747;28;20397;-77
2022/10/28 06:12:05;;;;;;;16.10;5.27;;;;;;;13.84;86.00;100957.34;5057493;28;20395;-77
2022/10/28 06:14:31;;;;;;;15.45;4.82;;;;;;;13.83;85.54;100953.78;5052200;28;20753;-77
2022/10/28 06:16:56;;;;;;;21.52;5.40;;;;;;;13.79;85.77;100958.13;5065430;28;20405;-77
2022/10/28 06:19:21;;;;;;;20.87;5.77;;;;;;;13.77;85.82;100962.13;5058356;28;20425;-77
2022/10/28 06:21:47;;;;;;;20.13;5.47;;;;;;;13.70;85.87;100966.97;5060421;28;20392;-77
2022/10/28 06:24:12;;;;;;;31.07;5.83;;;;;;;13.68;86.16;100963.66;5053989;28;20402;-77
2022/10/28 06:26:37;;;;;;;16.75;5.97;;;;;;;13.71;86.08;100968.59;5050348;28;20860;-77
2022/10/28 06:29:03;;;;;;;16.27;5.27;;;;;;;13.72;86.18;100973.00;5042940;28;20415;-78
2022/10/28 06:31:28;;;;;;;14.80;5.03;;;;;;;13.77;85.97;100975.75;5051324;28;20559;-77
2022/10/28 06:33:53;;;;;;;16.30;5.60;;;;;;;13.81;86.01;100976.91;5053058;28;20405;-77
2022/10/28 06:36:18;;;;;;;15.27;5.13;;;;;;;13.85;85.96;100973.44;5048398;28;20407;-77
2022/10/28 06:38:44;;;;;;;19.00;5.53;;;;;;;13.91;85.78;100972.41;5048205;28;20409;-77
2022/10/28 06:41:09;;;;;;;14.17;5.23;;;;;;;13.88;85.76;100983.00;5043899;28;20429;-77
2022/10/28 06:43:34;;;;;;;14.20;5.07;;;;;;;13.87;86.21;100984.88;5052114;28;21016;-77
2022/10/28 06:46:01;;;;;;;16.50;5.00;;;;;;;13.88;86.11;100986.56;5033216;28;20420;-77
2022/10/28 06:48:26;;;;;;;16.27;4.70;;;;;;;13.90;85.76;100995.28;5049796;28;20405;-77
2022/10/28 06:50:54;;;;;;;12.43;4.43;;;;;;;13.93;86.03;100999.41;5051413;28;20477;-78
2022/10/28 06:53:20;;;;;;;21.65;5.63;;;;;;;13.94;85.84;100999.16;5045760;28;20391;-77
2022/10/28 06:55:56;;;;;;;15.73;5.23;;;;;;;13.98;85.97;101004.91;5032514;28;20414;-78
2022/10/28 06:58:22;;;;;;;17.70;5.05;;;;;;;14.01;85.72;100999.78;5035139;28;20426;-77
2022/10/28 07:00:47;;;;;;;18.27;5.03;;;;;;;14.04;85.92;101010.19;5032413;28;20416;-78
2022/10/28 07:03:12;;;;;;;19.33;6.90;;;;;;;14.08;85.89;101013.22;5044786;28;20439;-77
2022/10/28 07:05:38;;;;;;;20.03;6.70;;;;;;;14.11;85.65;101015.44;5028898;28;20759;-77
2022/10/28 07:08:03;;;;;;;18.30;6.70;;;;;;;14.14;85.87;101009.47;5056674;28;20477;-78
2022/10/28 07:10:29;;;;;;;17.05;6.97;;;;;;;14.15;85.76;101008.41;5049384;28;20414;-77
2022/10/28 07:12:54;;;;;;;17.97;6.67;;;;;;;14.19;85.81;101004.09;5044046;28;20891;-77
2022/10/28 07:15:19;;;;;;;15.65;6.70;;;;;;;14.19;85.77;101016.91;5032238;28;20412;-77
2022/10/28 07:17:51;;;;;;;17.20;6.43;;;;;;;14.19;85.66;101015.00;5054724;28;20389;-77
2022/10/28 07:20:16;;;;;;;23.73;7.30;;;;;;;14.24;85.61;101017.78;5035920;28;20477;-77
2022/10/28 07:22:41;;;;;;;17.03;6.03;;;;;;;14.25;85.86;101005.78;5046875;28;20409;-77
2022/10/28 07:25:07;;;;;;;14.10;5.57;;;;;;;14.25;85.88;101007.69;5044031;28;20417;-77
2022/10/28 07:27:33;;;;;;;15.90;5.97;;;;;;;14.25;86.10;101013.16;5050233;28;20738;-77
2022/10/28 07:29:58;;;;;;;16.52;5.07;;;;;;;14.25;86.11;101018.59;5053990;28;20424;-77
2022/10/28 07:32:23;;;;;;;13.47;5.03;;;;;;;14.26;86.19;101009.34;5052525;28;20409;-77
2022/10/28 07:34:48;;;;;;;15.77;4.63;;;;;;;14.28;86.03;101016.19;5052377;28;20965;-77
2022/10/28 07:37:14;;;;;;;15.88;4.80;;;;;;;14.31;85.76;101009.38;5050137;28;20446;-77
2022/10/28 07:39:39;;;;;;;10.37;4.20;;;;;;;14.35;85.68;101024.19;5055294;28;20768;-77
2022/10/28 07:42:05;;;;;;;14.23;4.75;;;;;;;14.36;85.76;101020.38;5045923;28;20499;-77
2022/10/28 07:44:30;;;;;;;15.77;4.27;;;;;;;14.42;85.81;101019.38;5054226;28;20747;-77
2022/10/28 07:46:55;;;;;;;14.47;4.60;;;;;;;14.50;85.45;101021.63;5047549;28;20897;-77
2022/10/28 07:49:21;;;;;;;11.33;4.10;;;;;;;14.53;85.36;101021.94;5052847;28;20875;-77
2022/10/28 07:51:48;;;;;;;18.03;4.40;;;;;;;14.57;85.44;101019.53;5032902;28;20409;-77
2022/10/28 07:54:14;;;;;;;14.32;4.25;;;;;;;14.60;85.37;101019.00;5050014;28;20761;-77
2022/10/28 07:56:39;;;;;;;16.95;4.93;;;;;;;14.64;85.22;101028.31;5050297;28;20416;-77
2022/10/28 07:59:04;;;;;;;12.40;3.80;;;;;;;14.66;85.14;101028.88;5052661;28;20411;-77
2022/10/28 08:01:30;;;;;;;11.23;4.33;;;;;;;14.68;85.27;101032.19;5053573;28;20401;-77
2022/10/28 08:03:55;;;;;;;15.33;4.70;;;;;;;14.73;85.18;101047.75;5050880;28;20417;-77
2022/10/28 08:06:21;;;;;;;16.92;5.20;;;;;;;14.77;85.30;101043.44;5047643;28;20413;-77
2022/10/28 08:08:47;;;;;;;9.43;4.07;;;;;;;14.82;85.07;101035.31;5023059;28;20505;-77
2022/10/28 08:11:18;;;;;;;14.60;4.15;;;;;;;14.88;85.06;101031.56;5057221;28;20398;-77
2022/10/28 08:13:44;;;;;;;21.08;5.10;;;;;;;14.96;84.94;101028.34;5044349;28;20512;-77
2022/10/28 08:16:10;;;;;;;11.37;4.47;;;;;;;15.03;84.56;101018.03;5049705;28;20408;-77
2022/10/28 08:18:37;;;;;;;15.43;4.17;;;;;;;15.13;84.23;101004.47;5055064;28;20484;-77
2022/10/28 08:21:04;;;;;;;12.40;4.20;;;;;;;15.18;84.09;101009.16;5056484;28;20393;-77
2022/10/28 08:23:30;;;;;;;10.55;3.85;;;;;;;15.22;84.08;101015.69;5041490;28;20749;-77
2022/10/28 08:25:55;;;;;;;13.18;4.03;;;;;;;15.22;84.25;101024.72;5055105;28;20496;-77
2022/10/28 08:28:21;;;;;;;11.87;3.97;;;;;;;15.26;84.06;101014.94;5049135;28;20406;-77
2022/10/28 08:30:47;;;;;;;10.23;3.20;;;;;;;15.32;83.99;101018.50;5052160;28;20390;-77
2022/10/28 08:33:13;;;;;;;10.57;3.63;;;;;;;15.33;84.07;101025.63;5054035;28;20957;-77
2022/10/28 08:35:39;;;;;;;7.72;3.28;;;;;;;15.39;84.07;101030.88;5055883;28;20724;-77
2022/10/28 08:38:04;;;;;;;15.52;3.80;;;;;;;15.46;84.02;101036.91;5053684;28;20392;-77
2022/10/28 08:40:47;;;;;;;12.52;3.78;;;;;;;15.54;84.07;101041.13;5056858;28;20390;-78
2022/10/28 08:43:41;;;;;;;11.23;3.93;;;;;;;15.59;83.90;101038.41;5049901;28;20899;-77
2022/10/28 08:46:22;;;;;;;11.77;3.17;;;;;;;15.68;83.89;101030.50;5037060;28;20425;-77
2022/10/28 08:48:47;;;;;;;8.57;3.60;;;;;;;15.74;83.73;101026.75;5033796;28;20404;-77
2022/10/28 08:51:34;;;;;;;7.67;3.33;;;;;;;15.83;83.54;101030.63;5037676;28;20396;-77
2022/10/28 08:54:05;;;;;;;11.52;4.13;;;;;;;15.87;83.55;101031.75;5057646;28;20396;-77
2022/10/28 08:56:35;;;;;;;7.22;3.35;;;;;;;15.94;83.32;101024.91;5058204;28;20396;-77
2022/10/28 08:59:05;;;;;;;14.50;4.43;;;;;;;16.02;83.20;101009.91;5056851;28;20386;-77
2022/10/28 09:01:48;;;;;;;19.25;5.25;;;;;;;16.12;83.04;101006.41;5054855;28;20397;-77
2022/10/28 09:04:38;;;;;;;15.70;4.03;;;;;;;16.14;82.77;101004.22;5066139;28;20772;-77
2022/10/28 09:07:04;;;;;;;8.73;4.45;;;;;;;16.16;82.90;101011.09;5061602;28;20399;-77
2022/10/28 09:09:30;;;;;;;12.48;4.32;;;;;;;16.17;82.88;101009.16;5052182;28;20882;-77
2022/10/28 09:12:33;;;;;;;13.25;3.08;;;;;;;16.18;82.76;101014.34;5029655;28;20758;-77
2022/10/28 09:15:30;;;;;;;9.10;2.85;;;;;;;16.19;82.69;101001.50;5049800;28;20407;-77
2022/10/28 09:17:59;;;;;;;13.10;3.40;;;;;;;16.24;82.84;101017.91;5057385;28;20864;-77
2022/10/28 09:20:46;;;;;;;15.90;3.50;;;;;;;16.32;82.71;101010.03;5056265;28;20922;-77
2022/10/28 09:23:22;;;;;;;8.88;3.28;;;;;;;16.44;82.51;101010.59;5049752;28;20416;-77
2022/10/28 09:26:21;;;;;;;16.30;3.50;;;;;;;16.60;82.26;101011.47;5049223;28;20415;-77
2022/10/28 09:29:12;;;;;;;13.88;3.17;;;;;;;16.82;81.80;101013.97;5069852;28;20398;-77
2022/10/28 09:31:45;;;;;;;11.07;4.18;;;;;;;17.05;81.33;101017.00;5052091;28;20405;-76
2022/10/28 09:34:19;;;;;;;9.17;3.83;;;;;;;17.26;80.95;101026.00;5052600;28;20476;-77
2022/10/28 09:36:52;;;;;;;12.82;4.78;;;;;;;17.42;80.61;101037.81;5051977;28;20413;-77
2022/10/28 09:39:21;;;;;;;14.50;5.95;;;;;;;17.58;80.42;101034.75;5032771;28;20935;-86
2022/10/28 09:41:48;;;;;;;14.50;7.10;;;;;;;17.68;80.06;101028.47;5037001;28;20423;-82
2022/10/28 09:44:40;;;;;;;19.85;8.00;;;;;;;18.80;77.87;101013.13;5030328;28;20408;-83
2022/10/28 09:47:18;;;;;;;16.08;7.45;;;;;;;19.73;72.64;101012.81;5021956;28;20903;-83
2022/10/28 09:49:45;;;;;;;12.15;6.15;;;;;;;19.00;74.59;101017.63;5031651;28;20422;-82
2022/10/28 09:52:18;;;;;;;19.17;6.20;;;;;;;18.50;76.87;101038.03;5035282;28;20400;-82
2022/10/28 09:54:48;;;;;;;12.95;5.97;;;;;;;18.47;77.24;101031.16;5027010;28;20484;-87
2022/10/28 09:57:13;;;;;;;20.47;7.30;;;;;;;18.96;76.68;101022.88;5028935;28;20807;-81
2022/10/28 09:59:39;;;;;;;15.83;5.57;;;;;;;20.48;72.17;101018.50;5030821;28;20411;-81
2022/10/28 10:02:04;;;;;;;16.60;4.93;;;;;;;21.88;67.00;101022.72;5064270;28;20417;-82
2022/10/28 10:04:30;;;;;;;11.98;4.30;;;;;;;21.24;67.79;101023.66;5028123;28;20769;-82
2022/10/28 10:07:07;;;;;;;10.70;3.93;;;;;;;20.51;70.34;101021.50;5033268;28;20391;-81
2022/10/28 10:09:34;;;;;;;15.45;3.85;;;;;;;19.96;72.02;101023.00;5034087;28;20391;-81
2022/10/28 10:12:05;;;;;;;12.25;3.70;;;;;;;19.85;72.99;101023.41;5035151;28;20481;-82
2022/10/28 10:14:39;;;;;;;11.65;3.75;;;;;;;19.83;73.24;101017.38;5033557;28;20487;-82
2022/10/28 10:17:11;;;;;;;12.57;4.13;;;;;;;20.14;72.46;101026.91;5060711;28;20848;-82
2022/10/28 10:20:13;;;;;;;10.00;3.20;;;;;;;19.88;73.00;101023.66;5026242;28;20397;-88
2022/10/28 10:22:41;;;;;;;5.53;3.10;;;;;;;19.67;73.16;101013.97;5035169;28;20754;-81
2022/10/28 10:25:23;;;;;;;7.32;3.17;;;;;;;19.72;72.34;101024.13;5031784;28;20885;-82
2022/10/28 10:28:13;;;;;;;13.10;3.22;;;;;;;19.60;72.44;101010.75;5030195;28;20403;-82
2022/10/28 10:30:45;;;;;;;10.00;3.40;;;;;;;19.50;72.02;101013.63;5029350;28;20397;-82
2022/10/28 10:33:21;;;;;;;11.10;3.40;;;;;;;19.38;72.26;101016.75;5035882;28;20809;-82
2022/10/28 10:35:54;;;;;;;8.18;3.00;;;;;;;19.34;72.00;101025.84;5036900;28;20796;-83
2022/10/28 10:38:19;;;;;;;11.97;3.33;;;;;;;19.29;72.32;101021.22;5031711;28;20431;-83
2022/10/28 10:40:51;;;;;;;8.10;3.13;;;;;;;19.28;72.59;101016.81;5027622;28;20922;-83
2022/10/28 10:43:16;;;;;;;9.25;3.28;;;;;;;19.28;73.03;101021.50;5049402;28;20413;-83
2022/10/28 10:45:50;;;;;;;11.27;3.10;;;;;;;19.22;73.24;101020.72;5036157;28;20507;-82
2022/10/28 10:48:17;;;;;;;8.65;2.75;;;;;;;19.29;72.67;101018.47;5048616;28;20896;-83
2022/10/28 10:50:45;;;;;;;8.73;3.20;;;;;;;19.35;72.76;101011.81;5048421;28;20403;-82
2022/10/28 10:53:29;;;;;;;8.80;2.95;;;;;;;19.40;72.60;101009.03;5049859;28;20402;-81
2022/10/28 10:55:59;;;;;;;7.28;3.00;;;;;;;19.44;72.39;100998.28;5048471;28;20404;-81
2022/10/28 10:58:29;;;;;;;8.07;2.75;;;;;;;19.49;72.62;101004.56;5053671;28;20425;-80
2022/10/28 11:00:57;;;;;;;5.50;2.80;;;;;;;19.48;72.64;100997.44;5051164;28;20741;-80
2022/10/28 11:03:52;;;;;;;10.65;3.28;;;;;;;19.49;72.74;101004.56;5045374;28;20977;-80
2022/10/28 11:06:29;;;;;;;5.90;2.75;;;;;;;19.54;72.71;101000.94;5056109;28;20460;-82
2022/10/28 11:09:02;;;;;;;8.85;2.85;;;;;;;19.65;72.36;100996.97;5054129;28;20392;-82
2022/10/28 11:11:46;;;;;;;11.15;3.60;;;;;;;19.81;71.27;100987.44;5050473;28;20391;-82
2022/10/28 11:14:12;;;;;;;9.05;2.92;;;;;;;19.96;70.38;100987.22;5028503;28;20405;-82
2022/10/28 11:16:54;;;;;;;8.48;2.70;;;;;;;20.02;69.45;100988.00;5049343;28;20385;-82
2022/10/28 11:19:34;;;;;;;9.93;3.47;;;;;;;20.09;69.27;100986.50;5054406;28;20387;-82
2022/10/28 11:22:25;;;;;;;11.80;2.70;;;;;;;20.16;68.85;100986.97;5050327;28;20958;-82
2022/10/28 11:24:56;;;;;;;9.27;2.72;;;;;;;20.15;69.34;100977.06;5051586;28;20444;-82
2022/10/28 11:27:47;;;;;;;7.38;3.25;;;;;;;20.10;69.64;100974.41;5047572;28;20442;-84
2022/10/28 11:30:17;;;;;;;7.10;3.50;;;;;;;20.12;69.21;100974.91;5038217;28;20462;-85
2022/10/28 11:33:13;;;;;;;10.32;3.42;;;;;;;20.20;70.24;100985.28;5057859;28;20459;-86